createdAt,value
2022-11-27T00:00:09.455Z,4.14
2022-11-27T00:01:17.070Z,3.64
2022-11-27T00:02:20.450Z,3.66
2022-11-27T00:03:24.069Z,4.17
2022-11-27T00:04:27.494Z,3.93
2022-11-27T00:05:30.681Z,3.54
2022-11-27T00:06:35.034Z,3.93
2022-11-27T00:07:38.342Z,4.19
2022-11-27T00:08:42.684Z,3.88
2022-11-27T00:09:45.952Z,3.83
2022-11-27T00:10:49.249Z,4.01
2022-11-27T00:11:52.480Z,3.92
2022-11-27T00:12:55.672Z,4.30
2022-11-27T00:13:59.391Z,3.67
2022-11-27T00:15:03.436Z,3.18
2022-11-27T00:16:07.689Z,3.88
2022-11-27T00:17:10.889Z,3.92
2022-11-27T00:18:13.970Z,4.44
2022-11-27T00:19:17.214Z,3.58
2022-11-27T00:20:20.436Z,4.17
2022-11-27T00:21:26.618Z,4.01
2022-11-27T00:22:29.858Z,3.93
2022-11-27T00:23:34.482Z,3.19
2022-11-27T00:24:37.926Z,3.65
2022-11-27T00:25:42.999Z,3.71
2022-11-27T00:26:46.369Z,3.96
2022-11-27T00:27:49.658Z,3.43
2022-11-27T00:28:53.367Z,3.93
2022-11-27T00:29:56.488Z,4.17
2022-11-27T00:31:05.946Z,4.04
2022-11-27T00:32:09.193Z,3.61
2022-11-27T00:33:12.675Z,3.90
2022-11-27T00:34:15.834Z,3.63
2022-11-27T00:35:18.957Z,3.29
2022-11-27T00:36:22.853Z,3.94
2022-11-27T00:37:25.913Z,4.13
2022-11-27T00:38:29.053Z,3.67
2022-11-27T00:39:32.569Z,4.13
2022-11-27T00:40:35.760Z,3.92
2022-11-27T00:41:39.190Z,3.63
2022-11-27T00:42:42.292Z,3.81
2022-11-27T00:43:45.961Z,3.66
2022-11-27T00:44:49.050Z,3.82
2022-11-27T00:45:52.179Z,4.05
2022-11-27T00:46:55.344Z,4.11
2022-11-27T00:47:58.537Z,3.09
2022-11-27T00:49:04.749Z,3.58
2022-11-27T00:50:08.910Z,3.16
2022-11-27T00:51:15.062Z,3.47
2022-11-27T00:52:18.180Z,3.48
2022-11-27T00:53:21.259Z,3.31
2022-11-27T00:54:24.368Z,3.33
2022-11-27T00:55:27.468Z,3.30
2022-11-27T00:56:33.897Z,3.70
2022-11-27T00:57:37.020Z,3.91
2022-11-27T00:58:40.086Z,3.70
2022-11-27T00:59:43.160Z,3.59
2022-11-27T01:00:46.336Z,4.33
2022-11-27T01:01:50.046Z,4.36
2022-11-27T01:02:53.214Z,4.42
2022-11-27T01:03:58.049Z,4.22
2022-11-27T01:05:01.389Z,4.63
2022-11-27T01:06:06.577Z,4.76
2022-11-27T01:07:09.748Z,4.64
2022-11-27T01:08:13.056Z,3.96
2022-11-27T01:09:16.722Z,3.70
2022-11-27T01:10:19.794Z,4.20
2022-11-27T01:11:26.517Z,3.70
2022-11-27T01:12:29.697Z,3.83
2022-11-27T01:13:35.975Z,3.71
2022-11-27T01:14:39.357Z,3.90
2022-11-27T01:15:42.658Z,3.83
2022-11-27T01:16:46.097Z,3.34
2022-11-27T01:17:49.184Z,3.46
2022-11-27T01:18:55.264Z,3.86
2022-11-27T01:19:58.719Z,3.94
2022-11-27T01:21:03.027Z,4.03
2022-11-27T01:22:06.273Z,3.75
2022-11-27T01:23:09.395Z,3.52
2022-11-27T01:24:14.391Z,3.58
2022-11-27T01:25:17.725Z,3.73
2022-11-27T01:26:21.545Z,3.66
2022-11-27T01:27:24.751Z,3.20
2022-11-27T01:28:28.073Z,3.72
2022-11-27T01:29:31.251Z,3.24
2022-11-27T01:30:39.037Z,3.31
2022-11-27T01:31:42.303Z,3.18
2022-11-27T01:32:45.497Z,3.06
2022-11-27T01:33:54.224Z,4.13
2022-11-27T01:34:57.502Z,3.30
2022-11-27T01:36:03.522Z,3.25
2022-11-27T01:37:06.837Z,3.27
2022-11-27T01:38:10.087Z,4.01
2022-11-27T01:39:19.207Z,3.67
2022-11-27T01:40:22.944Z,3.29
2022-11-27T01:41:29.455Z,3.83
2022-11-27T01:42:32.675Z,4.51
2022-11-27T01:43:44.246Z,4.21
2022-11-27T01:44:50.747Z,3.79
2022-11-27T01:45:54.210Z,4.03
2022-11-27T01:47:03.591Z,4.50
2022-11-27T01:48:08.662Z,3.37
2022-11-27T01:49:15.347Z,3.92
2022-11-27T01:50:22.140Z,4.20
2022-11-27T01:51:25.572Z,4.69
2022-11-27T01:52:32.343Z,4.83
2022-11-27T01:53:35.494Z,4.46
2022-11-27T01:54:44.971Z,3.78
2022-11-27T01:55:51.753Z,3.84
2022-11-27T01:56:58.531Z,3.57
2022-11-27T01:58:08.330Z,3.34
2022-11-27T01:59:12.344Z,3.57
2022-11-27T02:00:17.741Z,3.80
2022-11-27T02:01:23.145Z,4.75
2022-11-27T02:02:26.363Z,5.16
2022-11-27T02:03:29.641Z,5.08
2022-11-27T02:04:32.831Z,5.74
2022-11-27T02:05:36.299Z,5.85
2022-11-27T02:06:39.587Z,5.64
2022-11-27T02:07:43.329Z,5.04
2022-11-27T02:08:46.660Z,5.05
2022-11-27T02:09:49.895Z,4.32
2022-11-27T02:10:56.542Z,3.69
2022-11-27T02:12:06.366Z,3.67
2022-11-27T02:13:13.515Z,2.98
2022-11-27T02:14:35.233Z,3.02
2022-11-27T02:16:03.323Z,3.23
2022-11-27T02:17:19.176Z,2.73
2022-11-27T02:18:25.847Z,3.10
2022-11-27T02:19:32.502Z,4.18
2022-11-27T02:21:08.005Z,4.14
2022-11-27T02:22:40.217Z,4.64
2022-11-27T02:24:12.708Z,5.06
2022-11-27T02:25:48.208Z,5.48
2022-11-27T02:27:06.760Z,5.66
2022-11-27T02:28:30.216Z,6.16
2022-11-27T02:29:35.014Z,5.99
2022-11-27T02:30:41.733Z,5.56
2022-11-27T02:32:12.451Z,5.07
2022-11-27T02:33:19.132Z,5.09
2022-11-27T02:34:47.109Z,4.36
2022-11-27T02:36:03.306Z,4.16
2022-11-27T02:37:18.760Z,4.40
2022-11-27T02:39:57.380Z,3.34
2022-11-27T02:41:04.227Z,3.09
2022-11-27T02:42:10.992Z,3.04
2022-11-27T02:43:20.477Z,2.67
2022-11-27T02:44:27.245Z,3.11
2022-11-27T02:45:42.917Z,2.69
2022-11-27T02:46:47.637Z,2.77
2022-11-27T02:47:51.426Z,2.53
2022-11-27T02:48:58.052Z,2.64
2022-11-27T02:50:03.262Z,2.78
2022-11-27T02:51:07.552Z,2.64
2022-11-27T02:52:13.588Z,2.87
2022-11-27T02:53:23.366Z,2.79
2022-11-27T02:54:29.636Z,5.65
2022-11-27T02:55:35.959Z,10.93
2022-11-27T02:56:40.984Z,9.94
2022-11-27T02:57:46.898Z,8.40
2022-11-27T02:58:52.221Z,7.92
2022-11-27T02:59:56.949Z,8.80
2022-11-27T03:01:02.723Z,7.17
2022-11-27T03:02:09.555Z,7.13
2022-11-27T03:03:16.434Z,7.12
2022-11-27T03:04:23.245Z,7.28
2022-11-27T03:05:29.913Z,5.48
2022-11-27T03:06:45.521Z,6.46
2022-11-27T03:07:55.124Z,3.92
2022-11-27T03:09:07.854Z,3.64
2022-11-27T03:10:20.605Z,3.39
2022-11-27T03:11:24.174Z,3.09
2022-11-27T03:12:27.679Z,3.21
2022-11-27T03:13:35.351Z,2.61
2022-11-27T03:14:41.167Z,2.83
2022-11-27T03:16:11.949Z,2.49
2022-11-27T03:17:24.745Z,2.94
2022-11-27T03:18:57.172Z,2.44
2022-11-27T03:20:12.766Z,3.54
2022-11-27T03:21:22.446Z,2.89
2022-11-27T03:22:30.410Z,2.89
2022-11-27T03:23:33.624Z,2.56
2022-11-27T03:24:37.031Z,2.69
2022-11-27T03:25:40.117Z,3.01
2022-11-27T03:26:43.589Z,3.27
2022-11-27T03:29:10.141Z,5.85
2022-11-27T03:30:14.167Z,4.93
2022-11-27T03:31:17.487Z,3.84
2022-11-27T03:32:21.368Z,4.54
2022-11-27T03:33:24.605Z,4.64
2022-11-27T03:34:28.777Z,5.95
2022-11-27T03:35:31.851Z,4.31
2022-11-27T03:36:35.008Z,4.42
2022-11-27T03:37:38.203Z,5.48
2022-11-27T03:38:43.007Z,4.13
2022-11-27T03:39:46.096Z,4.28
2022-11-27T03:40:52.763Z,3.97
2022-11-27T03:42:32.507Z,3.56
2022-11-27T03:43:41.840Z,3.01
2022-11-27T03:45:04.883Z,3.18
2022-11-27T03:46:12.169Z,2.87
2022-11-27T03:47:52.040Z,3.30
2022-11-27T03:49:24.663Z,2.61
2022-11-27T03:50:57.072Z,3.72
2022-11-27T03:52:06.457Z,3.10
2022-11-27T03:53:15.975Z,2.75
2022-11-27T03:54:35.136Z,2.64
2022-11-27T03:57:19.547Z,3.36
2022-11-27T03:58:35.323Z,3.76
2022-11-27T03:59:42.077Z,3.88
2022-11-27T04:00:47.941Z,3.88
2022-11-27T04:01:51.386Z,3.77
2022-11-27T04:02:54.500Z,3.91
2022-11-27T04:03:57.695Z,3.73
2022-11-27T04:05:00.866Z,2.88
2022-11-27T04:06:04.293Z,3.74
2022-11-27T04:07:07.469Z,3.38
2022-11-27T04:08:10.562Z,3.32
2022-11-27T04:09:13.631Z,3.29
2022-11-27T04:10:16.823Z,3.36
2022-11-27T04:11:19.915Z,3.04
2022-11-27T04:12:23.236Z,3.74
2022-11-27T04:13:26.425Z,2.76
2022-11-27T04:14:29.663Z,2.47
2022-11-27T04:15:32.722Z,3.08
2022-11-27T04:16:36.010Z,2.81
2022-11-27T04:17:39.185Z,3.47
2022-11-27T04:18:42.325Z,3.09
2022-11-27T04:19:45.386Z,3.72
2022-11-27T04:20:49.616Z,2.72
2022-11-27T04:21:52.735Z,2.75
2022-11-27T04:22:55.869Z,3.49
2022-11-27T04:23:58.953Z,3.28
2022-11-27T04:25:02.136Z,3.22
2022-11-27T04:26:05.512Z,3.41
2022-11-27T04:27:08.649Z,5.49
2022-11-27T04:28:11.808Z,4.26
2022-11-27T04:29:14.900Z,4.49
2022-11-27T04:30:18.171Z,4.22
2022-11-27T04:31:21.326Z,4.16
2022-11-27T04:32:24.776Z,4.04
2022-11-27T04:33:28.228Z,4.36
2022-11-27T04:34:32.100Z,4.71
2022-11-27T04:35:35.345Z,4.49
2022-11-27T04:36:39.609Z,4.68
2022-11-27T04:37:43.132Z,4.94
2022-11-27T04:38:46.184Z,4.89
2022-11-27T04:39:49.331Z,4.33
2022-11-27T04:40:57.249Z,5.22
2022-11-27T04:42:00.371Z,4.10
2022-11-27T04:43:03.795Z,4.54
2022-11-27T04:44:06.987Z,3.86
2022-11-27T04:45:10.708Z,4.08
2022-11-27T04:46:13.952Z,3.72
2022-11-27T04:47:17.095Z,3.16
2022-11-27T04:48:20.203Z,3.22
2022-11-27T04:49:23.462Z,4.52
2022-11-27T04:50:26.950Z,3.23
2022-11-27T04:51:30.172Z,3.83
2022-11-27T04:52:33.284Z,2.92
2022-11-27T04:53:37.044Z,2.76
2022-11-27T04:54:40.626Z,2.58
2022-11-27T04:55:44.051Z,2.94
2022-11-27T04:56:47.365Z,2.92
2022-11-27T04:57:50.526Z,3.32
2022-11-27T04:58:53.660Z,2.98
2022-11-27T04:59:56.912Z,3.29
2022-11-27T05:01:00.217Z,2.94
2022-11-27T05:02:03.377Z,4.87
2022-11-27T05:03:07.389Z,2.72
2022-11-27T05:04:10.643Z,3.16
2022-11-27T05:05:13.910Z,2.75
2022-11-27T05:06:17.359Z,2.77
2022-11-27T05:07:20.674Z,2.72
2022-11-27T05:08:24.619Z,2.52
2022-11-27T05:09:27.794Z,2.08
2022-11-27T05:10:31.136Z,2.79
2022-11-27T05:11:34.365Z,3.04
2022-11-27T05:12:37.615Z,2.46
2022-11-27T05:13:41.103Z,2.54
2022-11-27T05:14:44.289Z,2.71
2022-11-27T05:15:47.515Z,2.45
2022-11-27T05:16:52.568Z,2.46
2022-11-27T05:17:55.734Z,2.53
2022-11-27T05:18:58.837Z,2.72
2022-11-27T05:20:02.047Z,3.06
2022-11-27T05:21:07.904Z,2.86
2022-11-27T05:22:11.128Z,2.64
2022-11-27T05:23:14.363Z,3.27
2022-11-27T05:24:19.324Z,2.62
2022-11-27T05:25:22.652Z,2.47
2022-11-27T05:26:25.904Z,2.27
2022-11-27T05:27:29.111Z,2.71
2022-11-27T05:28:32.419Z,2.46
2022-11-27T05:29:35.486Z,2.43
2022-11-27T05:30:38.658Z,2.37
2022-11-27T05:31:42.321Z,3.46
2022-11-27T05:32:45.437Z,2.50
2022-11-27T05:33:48.667Z,2.35
2022-11-27T05:34:51.789Z,2.32
2022-11-27T05:35:54.928Z,3.38
2022-11-27T05:36:58.016Z,2.40
2022-11-27T05:38:01.111Z,2.92
2022-11-27T05:39:06.377Z,2.40
2022-11-27T05:40:10.485Z,2.21
2022-11-27T05:41:13.753Z,2.14
2022-11-27T05:42:16.947Z,2.23
2022-11-27T05:43:20.074Z,2.16
2022-11-27T05:44:23.378Z,2.24
2022-11-27T05:45:26.472Z,1.94
2022-11-27T05:46:29.722Z,2.47
2022-11-27T05:47:32.884Z,2.28
2022-11-27T05:48:36.953Z,2.94
2022-11-27T05:49:40.074Z,2.72
2022-11-27T05:50:43.155Z,2.45
2022-11-27T05:51:51.022Z,2.72
2022-11-27T05:52:51.320Z,2.23
2022-11-27T05:53:54.421Z,2.40
2022-11-27T05:54:57.560Z,2.57
2022-11-27T05:56:06.459Z,5.07
2022-11-27T05:57:09.566Z,2.37
2022-11-27T05:58:12.989Z,2.14
2022-11-27T05:59:16.063Z,2.37
2022-11-27T06:00:19.566Z,2.70
2022-11-27T06:01:22.734Z,2.47
2022-11-27T06:02:29.363Z,2.65
2022-11-27T06:03:31.731Z,2.68
2022-11-27T06:04:34.977Z,2.56
2022-11-27T06:05:41.619Z,3.07
2022-11-27T06:06:44.895Z,2.71
2022-11-27T06:07:47.988Z,2.83
2022-11-27T06:08:51.169Z,2.33
2022-11-27T06:09:54.325Z,2.89
2022-11-27T06:10:57.465Z,2.84
2022-11-27T06:12:00.647Z,2.85
2022-11-27T06:13:03.975Z,3.06
2022-11-27T06:14:08.947Z,2.67
2022-11-27T06:15:12.159Z,3.40
2022-11-27T06:16:18.533Z,3.16
2022-11-27T06:17:21.865Z,3.26
2022-11-27T06:18:25.167Z,3.07
2022-11-27T06:19:28.376Z,3.05
2022-11-27T06:20:31.784Z,2.71
2022-11-27T06:21:34.990Z,3.23
2022-11-27T06:22:38.230Z,2.87
2022-11-27T06:23:42.947Z,3.09
2022-11-27T06:24:46.233Z,3.08
2022-11-27T06:25:49.447Z,3.11
2022-11-27T06:26:52.759Z,3.14
2022-11-27T06:27:56.009Z,2.86
2022-11-27T06:29:00.692Z,3.00
2022-11-27T06:30:05.663Z,3.30
2022-11-27T06:31:15.970Z,3.28
2022-11-27T06:32:15.636Z,2.90
2022-11-27T06:33:18.893Z,3.08
2022-11-27T06:34:22.168Z,3.21
2022-11-27T06:35:25.681Z,3.02
2022-11-27T06:36:34.493Z,3.38
2022-11-27T06:37:37.717Z,2.87
2022-11-27T06:38:41.218Z,3.04
2022-11-27T06:39:44.416Z,2.87
2022-11-27T06:40:47.646Z,2.80
2022-11-27T06:41:50.906Z,2.98
2022-11-27T06:42:54.108Z,2.96
2022-11-27T06:43:59.599Z,3.10
2022-11-27T06:45:03.032Z,2.56
2022-11-27T06:46:08.286Z,3.21
2022-11-27T06:47:11.446Z,3.63
2022-11-27T06:48:14.679Z,3.39
2022-11-27T06:49:19.696Z,2.68
2022-11-27T06:50:22.828Z,3.32
2022-11-27T06:51:28.472Z,2.78
2022-11-27T06:52:34.659Z,2.88
2022-11-27T06:53:38.526Z,3.18
2022-11-27T06:54:42.048Z,2.58
2022-11-27T06:55:45.467Z,2.59
2022-11-27T11:16:02.563Z,2.86
2022-11-27T11:17:17.493Z,2.61
2022-11-27T11:18:24.037Z,2.01
2022-11-27T11:19:35.173Z,1.77
2022-11-27T11:20:38.583Z,1.61
2022-11-27T11:21:44.264Z,3.11
2022-11-27T11:22:48.159Z,1.53
2022-11-27T11:24:03.611Z,2.05
2022-11-27T11:25:10.363Z,1.68
2022-11-27T11:26:28.967Z,1.62
2022-11-27T11:27:32.346Z,2.02
2022-11-27T11:28:39.774Z,2.06
2022-11-27T11:29:52.667Z,1.79
2022-11-27T11:30:59.361Z,1.79
2022-11-27T11:32:12.463Z,1.99
2022-11-27T11:33:16.552Z,1.47
2022-11-27T11:34:28.742Z,1.95
2022-11-27T11:35:36.360Z,1.66
2022-11-27T11:36:40.676Z,2.11
2022-11-27T11:37:45.859Z,1.86
2022-11-27T11:38:50.025Z,1.38
2022-11-27T11:40:05.640Z,1.76
2022-11-27T11:41:09.343Z,1.79
2022-11-27T11:42:21.346Z,1.50
2022-11-27T11:43:33.710Z,1.65
2022-11-27T11:44:39.473Z,1.88
2022-11-27T11:45:48.230Z,1.83
2022-11-27T11:46:53.866Z,2.71
2022-11-27T11:47:59.289Z,3.07
2022-11-27T11:49:09.161Z,4.12
2022-11-27T11:50:15.197Z,3.41
2022-11-27T11:52:44.742Z,5.27
2022-11-27T11:53:51.385Z,3.08
2022-11-27T11:55:15.936Z,3.01
2022-11-27T11:56:34.787Z,3.52
2022-11-27T11:58:01.970Z,3.89
2022-11-27T11:59:14.745Z,3.87
2022-11-27T12:00:28.288Z,3.55
2022-11-27T12:02:05.534Z,3.29
2022-11-27T12:03:39.582Z,2.87
2022-11-27T12:04:59.903Z,3.49
2022-11-27T12:06:27.611Z,3.41
2022-11-27T12:07:52.535Z,3.79
2022-11-27T12:09:16.147Z,4.60
2022-11-27T12:10:27.413Z,3.72
2022-11-27T12:11:40.190Z,5.44
2022-11-27T12:12:49.651Z,5.18
2022-11-27T12:14:02.424Z,5.33
2022-11-27T12:15:24.189Z,4.74
2022-11-27T12:16:48.958Z,4.11
2022-11-27T12:18:13.511Z,3.58
2022-11-27T12:19:35.190Z,3.08
2022-11-27T12:20:53.865Z,2.62
2022-11-27T12:22:17.023Z,2.86
2022-11-27T12:23:40.081Z,2.87
2022-11-27T12:24:58.526Z,3.17
2022-11-27T12:26:20.319Z,2.97
2022-11-27T12:27:49.434Z,2.64
2022-11-27T12:28:59.341Z,2.91
2022-11-27T12:30:19.597Z,2.33
2022-11-27T12:31:52.329Z,2.06
2022-11-27T12:33:00.054Z,1.97
2022-11-27T12:34:07.816Z,2.26
2022-11-27T12:35:17.735Z,2.57
2022-11-27T12:36:39.604Z,1.95
2022-11-27T12:37:58.205Z,1.88
2022-11-27T12:39:17.096Z,2.41
2022-11-27T12:40:42.122Z,2.84
2022-11-27T12:41:54.584Z,2.17
2022-11-27T12:43:20.692Z,2.61
2022-11-27T12:45:47.304Z,2.39
2022-11-27T12:47:02.478Z,3.18
2022-11-27T12:48:09.163Z,2.98
2022-11-27T12:49:15.839Z,3.59
2022-11-27T12:50:26.732Z,3.25
2022-11-27T12:52:41.233Z,3.73
2022-11-27T12:53:47.951Z,3.00
2022-11-27T12:54:57.470Z,3.21
2022-11-27T12:56:16.559Z,3.49
2022-11-27T12:57:23.409Z,5.07
2022-11-27T12:58:30.175Z,3.75
2022-11-27T12:59:45.280Z,3.08
2022-11-27T13:00:49.960Z,3.44
2022-11-27T13:02:13.342Z,2.74
2022-11-27T13:03:38.454Z,3.02
2022-11-27T13:04:54.166Z,2.76
2022-11-27T13:06:01.068Z,2.99
2022-11-27T13:07:10.634Z,2.43
2022-11-27T13:08:26.428Z,2.39
2022-11-27T13:09:36.228Z,2.28
2022-11-27T13:10:51.751Z,1.85
2022-11-27T13:11:56.688Z,2.08
2022-11-27T13:13:19.892Z,2.83
2022-11-27T13:14:26.138Z,2.48
2022-11-27T13:15:33.045Z,2.24
2022-11-27T13:16:44.748Z,1.97
2022-11-27T13:17:51.415Z,1.99
2022-11-27T13:19:17.910Z,2.42
2022-11-27T13:20:24.659Z,2.91
2022-11-27T13:21:31.336Z,2.36
2022-11-27T13:22:36.192Z,2.18
2022-11-27T13:23:39.542Z,2.34
2022-11-27T13:24:43.198Z,2.94
2022-11-27T13:25:50.125Z,2.85
2022-11-27T13:27:02.545Z,2.74
2022-11-27T13:28:06.884Z,2.66
2022-11-27T13:29:37.657Z,2.42
2022-11-27T13:30:41.096Z,2.25
2022-11-27T13:31:46.432Z,2.49
2022-11-27T13:32:53.311Z,2.48
2022-11-27T13:34:02.018Z,2.59
2022-11-27T13:35:09.019Z,2.39
2022-11-27T13:36:35.748Z,1.98
2022-11-27T13:37:40.670Z,2.94
2022-11-27T13:38:44.710Z,2.61
2022-11-27T13:39:47.879Z,2.84
2022-11-27T13:40:55.345Z,1.76
2022-11-27T13:42:13.862Z,2.51
2022-11-27T13:44:59.390Z,2.89
2022-11-27T13:46:15.593Z,3.28
2022-11-27T13:47:21.710Z,1.98
2022-11-27T13:48:40.548Z,1.60
2022-11-27T13:49:44.769Z,1.63
2022-11-27T13:50:47.906Z,1.61
2022-11-27T13:51:51.090Z,1.64
2022-11-27T13:53:02.249Z,2.15
2022-11-27T13:54:17.612Z,2.06
2022-11-27T13:55:33.072Z,1.72
2022-11-27T13:56:36.567Z,2.04
2022-11-27T13:57:43.182Z,1.74
2022-11-27T13:58:46.281Z,2.17
2022-11-27T13:59:57.453Z,1.90
2022-11-27T14:01:16.042Z,1.56
2022-11-27T14:02:19.237Z,2.67
2022-11-27T14:03:25.573Z,1.80
2022-11-27T14:04:30.658Z,1.97
2022-11-27T14:05:37.156Z,1.97
2022-11-27T14:06:42.385Z,1.91
2022-11-27T14:07:48.886Z,2.53
2022-11-27T14:09:04.392Z,1.84
2022-11-27T14:10:20.270Z,2.09
2022-11-27T14:11:39.544Z,2.09
2022-11-27T14:12:44.655Z,2.30
2022-11-27T14:13:51.717Z,2.33
2022-11-27T14:15:10.568Z,2.64
2022-11-27T14:16:29.300Z,2.23
2022-11-27T14:17:44.331Z,3.07
2022-11-27T14:18:53.152Z,2.49
2022-11-27T14:20:11.891Z,2.36
2022-11-27T14:21:18.616Z,1.81
2022-11-27T14:22:40.835Z,2.01
2022-11-27T14:23:51.184Z,2.12
2022-11-27T14:24:55.414Z,2.24
2022-11-27T14:26:04.920Z,2.08
2022-11-27T14:27:17.220Z,2.17
2022-11-27T14:28:24.683Z,1.84
2022-11-27T14:29:30.913Z,1.75
2022-11-27T14:30:37.814Z,1.93
2022-11-27T14:31:42.745Z,1.83
2022-11-27T14:32:47.861Z,1.71
2022-11-27T14:34:14.034Z,1.55
2022-11-27T14:34:55.967Z,1.49
2022-11-27T14:36:02.503Z,1.69
2022-11-27T14:37:05.902Z,1.64
2022-11-27T14:38:12.032Z,1.77
2022-11-27T14:40:34.887Z,2.13
2022-11-27T14:41:37.946Z,1.78
2022-11-27T14:42:41.225Z,1.72
2022-11-27T14:43:44.415Z,1.92
2022-11-27T14:44:47.655Z,1.91
2022-11-27T14:45:56.850Z,2.27
2022-11-27T14:47:06.415Z,2.41
2022-11-27T14:48:24.942Z,1.88
2022-11-27T14:49:29.864Z,2.28
2022-11-27T14:50:33.209Z,1.99
2022-11-27T14:51:36.836Z,1.81
2022-11-27T14:52:42.829Z,1.71
2022-11-27T14:53:48.252Z,1.98
2022-11-27T14:54:52.185Z,1.73
2022-11-27T14:55:58.196Z,1.65
2022-11-27T14:57:02.354Z,1.47
2022-11-27T14:58:06.235Z,1.75
2022-11-27T14:59:18.523Z,2.28
2022-11-27T15:00:25.909Z,2.04
2022-11-27T15:01:31.127Z,2.43
2022-11-27T15:02:34.485Z,1.98
2022-11-27T15:03:38.185Z,2.26
2022-11-27T15:04:43.131Z,1.88
2022-11-27T15:06:01.259Z,2.91
2022-11-27T15:07:07.334Z,2.56
2022-11-27T15:08:10.579Z,2.13
2022-11-27T15:09:31.767Z,2.03
2022-11-27T15:10:40.324Z,2.01
2022-11-27T15:11:55.526Z,2.49
2022-11-27T15:12:49.116Z,2.23
2022-11-27T15:13:58.522Z,2.32
2022-11-27T15:15:10.751Z,2.46
2022-11-27T15:16:16.964Z,2.67
2022-11-27T15:17:25.500Z,2.77
2022-11-27T15:18:31.078Z,2.61
2022-11-27T15:19:36.953Z,2.34
2022-11-27T15:20:42.729Z,2.33
2022-11-27T15:21:48.652Z,2.06
2022-11-27T15:22:54.532Z,2.01
2022-11-27T15:23:58.730Z,2.33
2022-11-27T15:25:07.468Z,2.47
2022-11-27T15:26:16.939Z,2.27
2022-11-27T15:27:21.394Z,2.60
2022-11-27T15:28:42.774Z,2.47
2022-11-27T15:30:10.734Z,2.63
2022-11-27T15:31:32.733Z,2.97
2022-11-27T15:32:51.107Z,2.00
2022-11-27T15:35:29.576Z,2.30
2022-11-27T15:36:36.844Z,2.12
2022-11-27T15:37:40.600Z,2.47
2022-11-27T15:38:45.096Z,2.35
2022-11-27T15:39:53.962Z,2.40
2022-11-27T15:41:00.322Z,2.07
2022-11-27T15:42:06.519Z,2.06
2022-11-27T15:43:12.624Z,2.76
2022-11-27T15:44:15.739Z,2.29
2022-11-27T15:45:18.816Z,2.55
2022-11-27T15:46:30.736Z,2.70
2022-11-27T15:47:38.004Z,2.52
2022-11-27T15:48:41.097Z,2.87
2022-11-27T15:49:44.233Z,2.91
2022-11-27T15:50:51.616Z,2.57
2022-11-27T15:51:52.770Z,2.93
2022-11-27T15:52:55.932Z,2.88
2022-11-27T15:53:59.078Z,3.46
2022-11-27T15:55:02.225Z,3.37
2022-11-27T15:56:06.479Z,3.26
2022-11-27T15:57:09.801Z,3.14
2022-11-27T15:58:12.893Z,3.05
2022-11-27T15:59:18.910Z,3.10
2022-11-27T16:00:22.304Z,2.77
2022-11-27T16:01:25.569Z,3.07
2022-11-27T16:02:29.743Z,3.37
2022-11-27T16:03:33.002Z,2.81
2022-11-27T16:04:36.522Z,2.52
2022-11-27T16:05:39.871Z,2.43
2022-11-27T16:06:42.945Z,2.17
2022-11-27T16:07:46.964Z,2.37
2022-11-27T16:09:01.983Z,2.52
2022-11-27T16:10:06.094Z,2.74
2022-11-27T16:11:15.804Z,2.85
2022-11-27T16:12:18.957Z,2.71
2022-11-27T16:13:22.644Z,3.31
2022-11-27T16:14:25.773Z,3.12
2022-11-27T16:15:32.934Z,2.57
2022-11-27T16:16:34.858Z,2.73
2022-11-27T16:17:38.102Z,2.85
2022-11-27T16:18:41.404Z,2.54
2022-11-27T16:19:44.518Z,2.78
2022-11-27T16:20:47.630Z,2.95
2022-11-27T16:21:50.756Z,3.39
2022-11-27T16:22:53.923Z,3.59
2022-11-27T16:23:58.904Z,2.99
2022-11-27T16:25:02.146Z,3.03
2022-11-27T16:26:05.645Z,3.02
2022-11-27T16:27:09.035Z,3.29
2022-11-27T16:28:12.268Z,2.96
2022-11-27T16:29:15.485Z,3.30
2022-11-27T16:30:19.430Z,2.96
2022-11-27T16:31:23.768Z,3.70
2022-11-27T16:32:26.942Z,3.65
2022-11-27T16:33:31.891Z,3.69
2022-11-27T16:34:35.309Z,3.08
2022-11-27T16:35:39.082Z,3.41
2022-11-27T16:36:43.284Z,3.22
2022-11-27T16:37:46.583Z,3.20
2022-11-27T16:38:52.292Z,3.67
2022-11-27T16:39:57.405Z,3.93
2022-11-27T16:41:02.327Z,3.57
2022-11-27T16:42:05.612Z,3.34
2022-11-27T16:43:09.171Z,3.34
2022-11-27T16:44:15.126Z,3.94
2022-11-27T16:45:19.226Z,3.44
2022-11-27T16:46:28.530Z,3.40
2022-11-27T16:47:33.862Z,3.43
2022-11-27T16:48:38.964Z,3.37
2022-11-27T16:49:42.451Z,2.93
2022-11-27T16:50:46.287Z,3.34
